Maersk Bintan — VROX4 — position and weather

sailwx.info

Track history (hours):
 
Tides and Currents Weather Stations Pressure Air Temp Water Temp Dewpoint Dewpoint Depression Visibility Wind Speed Wind Dir Waves Ship Positions

Maersk Bintan

Last reported at 2018-Apr-20 13:09 UTC. Time now 2018-Apr-25 00:49 UTC.
Position N 09°33' W 079°48'.

Length 223 m; draft 12 m.

Type: Ship (hazmat cat A). MMSI: 477178900.

Date/timePositionNaut miles runAvg speedWind from/ knotsBaromVisibWave heightAir tempDewpointWater temp
2018-Apr-20 13:09N 09°33' W 079°48'216.5
2018-Apr-20 13:00N 09°31' W 079°49'815.9
2018-Apr-20 12:31N 09°25' W 079°54'3 5.9
2018-Apr-20 12:00N 09°22' W 079°53'0 0.1
2018-Apr-20 11:30N 09°22' W 079°53'0 0.0
2018-Apr-20 11:00N 09°22' W 079°53'0 0.0
2018-Apr-20 10:30N 09°22' W 079°53'0 0.0
2018-Apr-20 10:00N 09°22' W 079°53'0 0.0
2018-Apr-20 09:30N 09°22' W 079°53'0 0.0
2018-Apr-20 09:00N 09°22' W 079°53'0 0.0
2018-Apr-20 08:30N 09°22' W 079°53'0 0.0
2018-Apr-20 08:00N 09°22' W 079°53'0 0.0
2018-Apr-20 07:30N 09°22' W 079°53'0 0.0
2018-Apr-20 07:00N 09°22' W 079°53'0 0.0
2018-Apr-20 06:30N 09°22' W 079°53'0 0.0
2018-Apr-20 06:00N 09°22' W 079°53'0 0.0
2018-Apr-20 05:30N 09°22' W 079°53'0 0.0
2018-Apr-20 05:00N 09°22' W 079°53'0 0.0
2018-Apr-20 04:30N 09°22' W 079°53'0 0.0
2018-Apr-20 04:00N 09°22' W 079°53'0 0.0
2018-Apr-20 03:30N 09°22' W 079°53'0 0.1
2018-Apr-20 03:00N 09°22' W 079°53'0 0.1
2018-Apr-20 02:30N 09°22' W 079°53'0 0.0
2018-Apr-20 02:00N 09°22' W 079°53'0 0.0
2018-Apr-20 01:30N 09°22' W 079°53'0 0.0
2018-Apr-20 01:00N 09°22' W 079°53'0 0.0
2018-Apr-20 00:30N 09°22' W 079°53'0 0.0
2018-Apr-20 00:00N 09°22' W 079°53'0 0.1
2018-Apr-19 23:30N 09°22' W 079°53'0 0.0
2018-Apr-19 23:00N 09°22' W 079°53'0 0.0
2018-Apr-19 22:30N 09°22' W 079°53'0 0.0
2018-Apr-19 22:00N 09°22' W 079°53'0 0.0
2018-Apr-19 21:30N 09°22' W 079°53'0 0.0
2018-Apr-19 21:00N 09°22' W 079°53'0 0.0
2018-Apr-19 20:30N 09°22' W 079°53'0 0.9
2018-Apr-19 20:00N 09°22' W 079°53'3 6.6
2018-Apr-19 19:30N 09°25' W 079°54'2 3.5
2018-Apr-19 19:00N 09°24' W 079°55'5 9.6
2018-Apr-19 18:30N 09°19' W 079°55'3 4.7
2018-Apr-19 17:58N 09°17' W 079°55'0 0.5
2018-Apr-19 17:30N 09°16' W 079°55'0 0.4
2018-Apr-19 17:00N 09°16' W 079°55'0 0.4
2018-Apr-19 16:30N 09°16' W 079°55'1 1.0
2018-Apr-19 16:00N 09°15' W 079°55'0 0.0
2018-Apr-19 15:30N 09°15' W 079°55'2 3.4
2018-Apr-19 15:00N 09°14' W 079°55'3 5.5
2018-Apr-19 14:23N 09°11' W 079°53'  
Track history (hours):
 
Tides and Currents Weather Stations Pressure Air Temp Water Temp Dewpoint Dewpoint Depression Visibility Wind Speed Wind Dir Waves Ship Positions

Maersk Bintan

Last reported at 2018-Apr-20 13:09 UTC. Time now 2018-Apr-25 00:49 UTC.
Position N 09°33' W 079°48'.

Length 223 m; draft 12 m.

Type: Ship (hazmat cat A). MMSI: 477178900.

Date/timePositionNaut miles runAvg speedWind from/ knotsBaromVisibWave heightAir tempDewpointWater temp
2018-Apr-20 13:09N 09°33' W 079°48'216.5
2018-Apr-20 13:00N 09°31' W 079°49'815.9
2018-Apr-20 12:31N 09°25' W 079°54'3 5.9
2018-Apr-20 12:00N 09°22' W 079°53'0 0.1
2018-Apr-20 11:30N 09°22' W 079°53'0 0.0
2018-Apr-20 11:00N 09°22' W 079°53'0 0.0
2018-Apr-20 10:30N 09°22' W 079°53'0 0.0
2018-Apr-20 10:00N 09°22' W 079°53'0 0.0
2018-Apr-20 09:30N 09°22' W 079°53'0 0.0
2018-Apr-20 09:00N 09°22' W 079°53'0 0.0
2018-Apr-20 08:30N 09°22' W 079°53'0 0.0
2018-Apr-20 08:00N 09°22' W 079°53'0 0.0
2018-Apr-20 07:30N 09°22' W 079°53'0 0.0
2018-Apr-20 07:00N 09°22' W 079°53'0 0.0
2018-Apr-20 06:30N 09°22' W 079°53'0 0.0
2018-Apr-20 06:00N 09°22' W 079°53'0 0.0
2018-Apr-20 05:30N 09°22' W 079°53'0 0.0
2018-Apr-20 05:00N 09°22' W 079°53'0 0.0
2018-Apr-20 04:30N 09°22' W 079°53'0 0.0
2018-Apr-20 04:00N 09°22' W 079°53'0 0.0
2018-Apr-20 03:30N 09°22' W 079°53'0 0.1
2018-Apr-20 03:00N 09°22' W 079°53'0 0.1
2018-Apr-20 02:30N 09°22' W 079°53'0 0.0
2018-Apr-20 02:00N 09°22' W 079°53'0 0.0
2018-Apr-20 01:30N 09°22' W 079°53'0 0.0
2018-Apr-20 01:00N 09°22' W 079°53'0 0.0
2018-Apr-20 00:30N 09°22' W 079°53'0 0.0
2018-Apr-20 00:00N 09°22' W 079°53'0 0.1
2018-Apr-19 23:30N 09°22' W 079°53'0 0.0
2018-Apr-19 23:00N 09°22' W 079°53'0 0.0
2018-Apr-19 22:30N 09°22' W 079°53'0 0.0
2018-Apr-19 22:00N 09°22' W 079°53'0 0.0
2018-Apr-19 21:30N 09°22' W 079°53'0 0.0
2018-Apr-19 21:00N 09°22' W 079°53'0 0.0
2018-Apr-19 20:30N 09°22' W 079°53'0 0.9
2018-Apr-19 20:00N 09°22' W 079°53'3 6.6
2018-Apr-19 19:30N 09°25' W 079°54'2 3.5
2018-Apr-19 19:00N 09°24' W 079°55'5 9.6
2018-Apr-19 18:30N 09°19' W 079°55'3 4.7
2018-Apr-19 17:58N 09°17' W 079°55'0 0.5
2018-Apr-19 17:30N 09°16' W 079°55'0 0.4
2018-Apr-19 17:00N 09°16' W 079°55'0 0.4
2018-Apr-19 16:30N 09°16' W 079°55'1 1.0
2018-Apr-19 16:00N 09°15' W 079°55'0 0.0
2018-Apr-19 15:30N 09°15' W 079°55'2 3.4
2018-Apr-19 15:00N 09°14' W 079°55'3 5.5
2018-Apr-19 14:23N 09°11' W 079°53'  

Dump ship's entire track history